Time;durP1;ratioP1;P1;durP2;ratioP2;P2;SDS_P1;SDS_P2;PMS_P1;PMS_P2;Temp;Humidity;BMP_temperature;BMP_pressure;BME280_temperature;BME280_humidity;BME280_pressure;Samples;Min_cycle;Max_cycle;Signal;HPM_P1;HPM_P2
2022/07/31 00:01:45;;;;;;;9.02;3.83;;;19.40;99.90;;;;;;5067488;28;20036;-67
2022/07/31 00:04:11;;;;;;;11.40;4.40;;;19.40;99.90;;;;;;5044461;28;20028;-68
2022/07/31 00:06:37;;;;;;;9.27;3.30;;;19.30;99.90;;;;;;5067671;28;20036;-68
2022/07/31 00:09:03;;;;;;;9.52;4.20;;;19.30;99.90;;;;;;5068037;28;20060;-68
2022/07/31 00:11:29;;;;;;;12.52;4.38;;;19.30;99.90;;;;;;5066364;28;20556;-68
2022/07/31 00:13:55;;;;;;;11.52;4.53;;;19.30;99.90;;;;;;5067397;28;20036;-68
2022/07/31 00:16:20;;;;;;;9.98;4.07;;;19.20;99.90;;;;;;5066043;28;20063;-69
2022/07/31 00:18:46;;;;;;;9.57;4.55;;;19.20;99.90;;;;;;5068401;28;20060;-67
2022/07/31 00:21:12;;;;;;;12.93;4.47;;;19.20;99.90;;;;;;5067191;28;20128;-69
2022/07/31 00:23:39;;;;;;;9.27;4.45;;;19.20;99.90;;;;;;5045594;28;20036;-70
2022/07/31 00:26:06;;;;;;;11.82;4.43;;;19.20;99.90;;;;;;5063634;28;20494;-67
2022/07/31 00:28:32;;;;;;;12.60;4.50;;;19.20;99.90;;;;;;5067410;28;20039;-70
2022/07/31 00:30:57;;;;;;;10.18;4.90;;;19.20;99.90;;;;;;5066988;28;20036;-69
2022/07/31 00:33:23;;;;;;;11.70;4.70;;;19.10;99.90;;;;;;5065339;28;20459;-69
2022/07/31 00:35:49;;;;;;;10.70;4.93;;;19.10;99.90;;;;;;5065536;28;20062;-69
2022/07/31 00:38:15;;;;;;;13.85;4.80;;;19.10;99.90;;;;;;5049092;28;20033;-69
2022/07/31 00:40:50;;;;;;;9.27;4.72;;;19.10;99.90;;;;;;5067377;28;20063;-69
2022/07/31 00:43:19;;;;;;;12.65;5.55;;;19.00;99.90;;;;;;5066281;28;20040;-69
2022/07/31 00:45:45;;;;;;;11.55;5.07;;;18.90;99.90;;;;;;5061239;28;20131;-69
2022/07/31 00:48:11;;;;;;;10.35;4.70;;;18.90;99.90;;;;;;5062203;28;20552;-69
2022/07/31 00:50:37;;;;;;;11.15;4.93;;;18.90;99.90;;;;;;5060112;28;20028;-69
2022/07/31 00:53:03;;;;;;;14.15;5.03;;;18.90;99.90;;;;;;5061975;28;20833;-70
2022/07/31 00:55:29;;;;;;;10.27;4.18;;;18.90;99.90;;;;;;5062656;28;20036;-69
2022/07/31 00:57:55;;;;;;;14.68;4.55;;;18.90;99.90;;;;;;5044192;28;20056;-69
2022/07/31 01:00:22;;;;;;;9.18;3.97;;;18.90;99.90;;;;;;5045367;28;20071;-70
2022/07/31 01:02:48;;;;;;;11.18;4.30;;;19.00;99.90;;;;;;5066481;28;20048;-68
2022/07/31 01:05:15;;;;;;;10.25;4.15;;;19.00;99.90;;;;;;5067946;28;20473;-68
2022/07/31 01:07:47;;;;;;;10.23;4.40;;;19.10;99.90;;;;;;5063906;28;20112;-68
2022/07/31 01:10:18;;;;;;;12.45;4.80;;;19.10;99.90;;;;;;5066627;28;20036;-69
2022/07/31 01:13:19;;;;;;;11.82;4.50;;;19.10;99.90;;;;;;5058658;28;20048;-68
2022/07/31 01:15:46;;;;;;;10.75;4.03;;;19.10;99.90;;;;;;5043261;28;20049;-69
2022/07/31 01:18:14;;;;;;;13.93;4.93;;;19.10;99.90;;;;;;5067475;28;20037;-69
2022/07/31 01:20:43;;;;;;;9.13;4.35;;;19.00;99.90;;;;;;5054633;28;20114;-69
2022/07/31 01:24:00;;;;;;;14.27;4.75;;;19.00;99.90;;;;;;5070627;28;20401;-69
2022/07/31 01:27:02;;;;;;;11.93;4.70;;;19.00;99.90;;;;;;5070302;28;20043;-69
2022/07/31 01:29:34;;;;;;;15.25;5.85;;;19.00;99.90;;;;;;5017621;28;20044;-69
2022/07/31 01:32:09;;;;;;;11.50;5.00;;;18.90;99.90;;;;;;5065496;28;20505;-69
2022/07/31 01:34:46;;;;;;;13.35;4.97;;;18.90;99.90;;;;;;5049611;28;20024;-70
2022/07/31 01:37:19;;;;;;;12.25;4.88;;;18.90;99.90;;;;;;5044987;28;20088;-69
2022/07/31 01:39:51;;;;;;;11.55;4.45;;;18.90;99.90;;;;;;5069333;28;20487;-69
2022/07/31 01:42:19;;;;;;;10.45;4.55;;;18.90;99.90;;;;;;5067615;28;20081;-69
2022/07/31 01:44:50;;;;;;;9.85;4.90;;;18.90;99.90;;;;;;5049040;28;20033;-69
2022/07/31 01:47:19;;;;;;;8.23;4.50;;;18.90;99.90;;;;;;5066594;28;20062;-66
2022/07/31 01:49:47;;;;;;;12.50;4.55;;;18.80;99.90;;;;;;5044684;28;20037;-68
2022/07/31 01:52:14;;;;;;;13.77;5.03;;;18.90;99.90;;;;;;5066283;28;20123;-67
2022/07/31 01:54:40;;;;;;;10.27;5.13;;;18.90;99.90;;;;;;5066315;28;20736;-67
2022/07/31 01:57:08;;;;;;;11.77;5.15;;;18.80;99.90;;;;;;5041650;28;20115;-69
2022/07/31 01:59:36;;;;;;;11.15;5.40;;;18.90;99.90;;;;;;5060705;28;20461;-68
2022/07/31 02:02:03;;;;;;;13.02;5.32;;;18.90;99.90;;;;;;5067782;28;20053;-68
2022/07/31 02:04:30;;;;;;;13.57;6.18;;;18.80;99.90;;;;;;5065983;28;20032;-67
2022/07/31 02:06:58;;;;;;;16.40;6.18;;;18.90;99.90;;;;;;5062337;28;20124;-68
2022/07/31 02:09:25;;;;;;;20.48;7.80;;;18.90;99.90;;;;;;5065611;28;20031;-68
2022/07/31 02:11:52;;;;;;;12.82;6.95;;;18.90;99.90;;;;;;5067604;28;20129;-68
2022/07/31 02:14:19;;;;;;;13.52;7.32;;;18.90;99.90;;;;;;5068127;28;20041;-68
2022/07/31 02:16:46;;;;;;;12.13;6.90;;;19.00;99.90;;;;;;5067061;28;20033;-68
2022/07/31 02:19:13;;;;;;;15.10;7.75;;;19.00;99.90;;;;;;5065314;28;20033;-67
2022/07/31 02:21:40;;;;;;;12.02;7.10;;;19.00;99.90;;;;;;5060938;28;20040;-68
2022/07/31 02:24:06;;;;;;;17.25;7.43;;;19.00;99.90;;;;;;5065592;28;20033;-68
2022/07/31 02:26:33;;;;;;;14.48;7.30;;;19.00;99.90;;;;;;5067392;28;20029;-68
2022/07/31 02:29:01;;;;;;;14.23;6.70;;;18.90;99.90;;;;;;5066006;28;20024;-67
2022/07/31 02:31:30;;;;;;;16.02;7.05;;;19.00;99.90;;;;;;5065363;28;20429;-67
2022/07/31 02:33:56;;;;;;;15.32;6.82;;;19.00;99.90;;;;;;5050848;28;20086;-68
2022/07/31 02:36:23;;;;;;;15.98;7.00;;;19.00;99.90;;;;;;5049859;28;20040;-67
2022/07/31 02:38:51;;;;;;;13.23;6.43;;;19.00;99.90;;;;;;5066595;28;20119;-68
2022/07/31 02:41:18;;;;;;;10.80;6.15;;;19.00;99.90;;;;;;5060085;28;20539;-67
2022/07/31 02:43:45;;;;;;;13.05;6.32;;;19.10;99.90;;;;;;5067603;28;20060;-68
2022/07/31 02:46:12;;;;;;;14.90;6.30;;;19.00;99.90;;;;;;5066368;28;20082;-68
2022/07/31 02:48:38;;;;;;;11.27;5.65;;;19.10;99.90;;;;;;5068063;28;20103;-69
2022/07/31 02:51:05;;;;;;;12.88;5.95;;;19.10;99.90;;;;;;5064723;28;20041;-68
2022/07/31 02:53:31;;;;;;;13.25;5.85;;;19.10;99.90;;;;;;5059560;28;20402;-68
2022/07/31 02:55:58;;;;;;;13.30;5.45;;;19.20;99.90;;;;;;5063453;28;20036;-68
2022/07/31 02:58:23;;;;;;;13.80;5.65;;;19.20;99.90;;;;;;5065544;28;20466;-68
2022/07/31 03:01:00;;;;;;;9.93;5.25;;;19.20;99.90;;;;;;5063180;28;20040;-68
2022/07/31 03:03:26;;;;;;;12.63;5.03;;;19.20;99.90;;;;;;5062729;28;20556;-69
2022/07/31 03:05:52;;;;;;;9.55;4.90;;;19.20;99.90;;;;;;5066215;28;20111;-67
2022/07/31 03:08:17;;;;;;;10.10;4.90;;;19.20;99.90;;;;;;5066909;28;20033;-68
2022/07/31 03:10:43;;;;;;;11.35;4.68;;;19.20;99.90;;;;;;5066110;28;20040;-68
2022/07/31 03:13:10;;;;;;;10.40;4.53;;;19.30;99.90;;;;;;5066033;28;20394;-67
2022/07/31 03:15:38;;;;;;;12.50;5.78;;;19.30;99.90;;;;;;5058668;28;20120;-68
2022/07/31 03:18:06;;;;;;;10.23;4.88;;;19.30;99.90;;;;;;5065008;28;20110;-69
2022/07/31 03:20:33;;;;;;;10.52;5.43;;;19.30;99.90;;;;;;5038968;28;20032;-69
2022/07/31 03:23:00;;;;;;;11.75;5.18;;;19.40;99.90;;;;;;5047703;28;20056;-67
2022/07/31 03:25:26;;;;;;;13.38;6.07;;;19.30;99.90;;;;;;5064220;28;20072;-66
2022/07/31 03:27:52;;;;;;;12.52;5.00;;;19.40;99.90;;;;;;5064481;28;20514;-67
2022/07/31 03:30:23;;;;;;;13.13;5.10;;;19.40;99.90;;;;;;5066241;28;20111;-67
2022/07/31 03:32:50;;;;;;;14.68;5.53;;;19.40;99.90;;;;;;5064858;28;20127;-65
2022/07/31 03:35:17;;;;;;;14.00;5.82;;;19.40;99.90;;;;;;5066017;28;20025;-67
2022/07/31 03:37:43;;;;;;;12.15;5.38;;;19.40;99.90;;;;;;5064009;28;20115;-68
2022/07/31 03:40:09;;;;;;;12.25;4.90;;;19.40;99.90;;;;;;5065814;28;20036;-67
2022/07/31 03:42:35;;;;;;;14.45;5.47;;;19.40;99.90;;;;;;5066088;28;20505;-67
2022/07/31 03:45:02;;;;;;;13.00;4.85;;;19.40;99.90;;;;;;5067879;28;20043;-68
2022/07/31 03:47:28;;;;;;;13.73;4.80;;;19.40;99.90;;;;;;5066610;28;20526;-67
2022/07/31 03:49:54;;;;;;;9.00;4.05;;;19.40;99.90;;;;;;5069284;28;20043;-66
2022/07/31 03:52:20;;;;;;;10.68;4.13;;;19.40;99.90;;;;;;5068300;28;20470;-66
2022/07/31 03:54:46;;;;;;;11.00;4.63;;;19.40;99.90;;;;;;5061397;28;20028;-67
2022/07/31 03:57:12;;;;;;;12.30;4.32;;;19.40;99.90;;;;;;5047063;28;20371;-66
2022/07/31 03:59:38;;;;;;;11.63;5.03;;;19.40;99.90;;;;;;5067086;28;20063;-66
2022/07/31 04:02:06;;;;;;;10.68;4.90;;;19.40;99.90;;;;;;5066551;28;20035;-68
2022/07/31 04:04:33;;;;;;;13.10;4.65;;;19.40;99.90;;;;;;5066478;28;20039;-67
2022/07/31 04:06:59;;;;;;;8.93;4.13;;;19.30;99.90;;;;;;5048795;28;20418;-66
2022/07/31 04:09:24;;;;;;;12.45;3.83;;;19.30;99.90;;;;;;5067082;28;20498;-66
2022/07/31 04:11:50;;;;;;;10.00;4.13;;;19.30;99.90;;;;;;5066126;28;20052;-68
2022/07/31 04:14:16;;;;;;;11.23;4.05;;;19.30;99.90;;;;;;5048184;28;20058;-67
2022/07/31 04:16:41;;;;;;;10.13;4.00;;;19.30;99.90;;;;;;5061938;28;20110;-66
2022/07/31 04:19:07;;;;;;;11.18;3.83;;;19.30;99.90;;;;;;5066498;28;20039;-66
2022/07/31 04:21:32;;;;;;;9.93;3.92;;;19.20;99.90;;;;;;5048348;28;20028;-66
2022/07/31 04:23:58;;;;;;;8.85;3.65;;;19.30;99.90;;;;;;5067719;28;20036;-67
2022/07/31 04:26:24;;;;;;;10.73;3.92;;;19.20;99.90;;;;;;5065665;28;20121;-68
2022/07/31 04:28:50;;;;;;;8.38;3.30;;;19.20;99.90;;;;;;5067402;28;20032;-66
2022/07/31 04:31:15;;;;;;;9.05;3.33;;;19.30;99.90;;;;;;5046908;28;20060;-69
2022/07/31 04:33:42;;;;;;;11.77;3.97;;;19.30;99.90;;;;;;5065847;28;20036;-68
2022/07/31 04:36:08;;;;;;;9.52;3.45;;;19.30;99.90;;;;;;5049167;28;20039;-68
2022/07/31 04:38:34;;;;;;;11.48;3.97;;;19.20;99.90;;;;;;5062027;28;20029;-66
2022/07/31 04:40:59;;;;;;;11.10;3.90;;;19.20;99.90;;;;;;5063732;28;20474;-67
2022/07/31 04:43:25;;;;;;;8.90;4.10;;;19.30;99.90;;;;;;5064109;28;20036;-68
2022/07/31 04:45:51;;;;;;;12.40;4.53;;;19.30;99.90;;;;;;5064245;28;20025;-68
2022/07/31 04:48:16;;;;;;;10.10;4.22;;;19.20;99.90;;;;;;5046972;28;20032;-67
2022/07/31 04:50:42;;;;;;;11.40;4.47;;;19.30;99.90;;;;;;5067254;28;20074;-67
2022/07/31 04:53:08;;;;;;;9.35;3.88;;;19.30;99.90;;;;;;5064769;28;20059;-67
2022/07/31 04:55:33;;;;;;;13.45;4.32;;;19.30;99.90;;;;;;5060590;28;20020;-66
2022/07/31 04:57:59;;;;;;;10.38;4.38;;;19.20;99.90;;;;;;5065274;28;20028;-67
2022/07/31 05:00:25;;;;;;;8.27;4.43;;;19.30;99.90;;;;;;5043817;28;20039;-67
2022/07/31 05:02:51;;;;;;;10.18;3.90;;;19.20;99.90;;;;;;5064923;28;20028;-66
2022/07/31 05:05:17;;;;;;;11.43;4.10;;;19.20;99.90;;;;;;5060624;28;20139;-67
2022/07/31 05:07:43;;;;;;;9.52;3.83;;;19.20;99.90;;;;;;5063084;28;20028;-67
2022/07/31 05:10:09;;;;;;;9.40;4.00;;;19.20;99.90;;;;;;5046851;28;20483;-67
2022/07/31 05:12:35;;;;;;;8.52;3.83;;;19.20;99.90;;;;;;5047489;28;20051;-67
2022/07/31 05:15:00;;;;;;;10.90;4.00;;;19.20;99.90;;;;;;5044153;28;20032;-68
2022/07/31 05:17:26;;;;;;;9.07;3.83;;;19.30;99.90;;;;;;5063595;28;20037;-67
2022/07/31 05:19:52;;;;;;;9.40;4.15;;;19.30;99.90;;;;;;5064985;28;20028;-67
2022/07/31 05:22:18;;;;;;;10.82;3.88;;;19.30;99.90;;;;;;5064999;28;20544;-67
2022/07/31 05:24:43;;;;;;;7.07;3.70;;;19.30;99.90;;;;;;5065918;28;20040;-67
2022/07/31 05:27:09;;;;;;;10.13;3.55;;;19.30;99.90;;;;;;5045942;28;20054;-67
2022/07/31 05:29:34;;;;;;;13.48;4.60;;;19.30;99.90;;;;;;5061318;28;20504;-67
2022/07/31 05:32:00;;;;;;;9.15;3.53;;;19.40;99.90;;;;;;5063556;28;20409;-66
2022/07/31 05:34:28;;;;;;;8.05;4.00;;;19.40;99.90;;;;;;5064984;28;20478;-67
2022/07/31 05:36:54;;;;;;;7.38;3.60;;;19.40;99.90;;;;;;5066847;28;20032;-67
2022/07/31 05:39:20;;;;;;;6.65;3.33;;;19.40;99.90;;;;;;5066816;28;20473;-67
2022/07/31 05:41:47;;;;;;;6.95;3.33;;;19.50;99.90;;;;;;5047984;28;20064;-67
2022/07/31 05:44:13;;;;;;;7.43;3.50;;;19.50;99.90;;;;;;5062422;28;20060;-66
2022/07/31 05:46:39;;;;;;;5.25;3.17;;;19.50;99.90;;;;;;5046464;28;20060;-65
2022/07/31 05:49:05;;;;;;;7.25;3.25;;;19.50;99.90;;;;;;5048267;28;20032;-67
2022/07/31 05:51:30;;;;;;;7.60;3.80;;;19.50;99.90;;;;;;5066239;28;20074;-66
2022/07/31 05:53:56;;;;;;;7.20;3.25;;;19.50;99.90;;;;;;5066608;28;20060;-66
2022/07/31 05:56:22;;;;;;;8.85;3.72;;;19.50;99.90;;;;;;5048299;28;20036;-66
2022/07/31 05:58:47;;;;;;;7.18;3.78;;;19.60;99.90;;;;;;5067031;28;20108;-66
2022/07/31 06:01:13;;;;;;;8.25;4.03;;;19.60;99.90;;;;;;5061615;28;20097;-66
2022/07/31 06:03:39;;;;;;;8.48;3.72;;;19.60;99.90;;;;;;5046575;28;20097;-67
2022/07/31 06:06:05;;;;;;;7.43;3.42;;;19.60;99.90;;;;;;5065527;28;20032;-66
2022/07/31 06:08:32;;;;;;;9.82;3.53;;;19.60;99.90;;;;;;5049885;28;20041;-69
2022/07/31 06:10:58;;;;;;;7.03;3.65;;;19.60;99.90;;;;;;5068915;28;20079;-67
2022/07/31 06:13:26;;;;;;;8.20;3.70;;;19.70;99.90;;;;;;5067071;28;20036;-67
2022/07/31 06:15:52;;;;;;;6.22;3.70;;;19.70;99.90;;;;;;5069045;28;20055;-67
2022/07/31 06:18:18;;;;;;;7.85;3.67;;;19.80;99.90;;;;;;5069574;28;20036;-67
2022/07/31 06:20:44;;;;;;;6.00;3.30;;;19.80;99.90;;;;;;5068175;28;20041;-68
2022/07/31 06:23:10;;;;;;;7.50;3.67;;;19.80;99.90;;;;;;5052860;28;20032;-68
2022/07/31 06:25:36;;;;;;;7.88;3.20;;;19.90;99.90;;;;;;5063452;28;20036;-66
2022/07/31 06:28:02;;;;;;;5.82;3.42;;;20.00;99.90;;;;;;5068755;28;20037;-66
2022/07/31 06:30:27;;;;;;;7.63;3.60;;;20.10;99.90;;;;;;5050297;28;20110;-67
2022/07/31 06:32:53;;;;;;;8.05;3.70;;;20.20;99.90;;;;;;5062608;28;20052;-66
2022/07/31 06:35:19;;;;;;;6.50;3.80;;;20.20;99.90;;;;;;5069790;28;20030;-66
2022/07/31 06:37:44;;;;;;;8.00;4.57;;;20.20;99.90;;;;;;5043221;28;20039;-66
2022/07/31 06:40:11;;;;;;;8.85;4.55;;;20.20;99.90;;;;;;5050207;28;20035;-67
2022/07/31 06:42:37;;;;;;;10.38;3.80;;;20.20;99.90;;;;;;5064641;28;20039;-67
2022/07/31 06:45:03;;;;;;;6.70;3.65;;;20.30;99.90;;;;;;5068145;28;20032;-68
2022/07/31 06:47:28;;;;;;;9.77;3.88;;;20.40;99.90;;;;;;5067958;28;20041;-67
2022/07/31 06:49:55;;;;;;;8.13;3.75;;;20.40;99.90;;;;;;5065436;28;20073;-67
2022/07/31 06:52:21;;;;;;;9.23;3.88;;;20.40;99.90;;;;;;5067839;28;20055;-66
2022/07/31 06:54:46;;;;;;;8.65;3.90;;;20.40;99.90;;;;;;5048112;28;20486;-67
2022/07/31 06:57:12;;;;;;;8.23;3.85;;;20.40;99.90;;;;;;5065140;28;20111;-67
2022/07/31 06:59:39;;;;;;;7.38;3.55;;;20.40;99.90;;;;;;5067968;28;20097;-69
2022/07/31 07:02:04;;;;;;;7.88;3.60;;;20.40;99.90;;;;;;5067867;28;20032;-68
2022/07/31 07:04:30;;;;;;;8.98;4.05;;;20.50;99.90;;;;;;5050903;28;20028;-69
2022/07/31 07:06:56;;;;;;;8.77;4.00;;;20.50;99.90;;;;;;5068934;28;20104;-68
2022/07/31 07:09:21;;;;;;;10.68;4.70;;;20.50;99.90;;;;;;5067981;28;20116;-68
2022/07/31 07:11:47;;;;;;;9.73;4.07;;;20.50;99.90;;;;;;5066730;28;20068;-69
2022/07/31 07:14:15;;;;;;;6.53;3.80;;;20.50;99.90;;;;;;5065323;28;20036;-66
2022/07/31 07:16:40;;;;;;;8.38;4.00;;;20.60;99.90;;;;;;5058288;28;20036;-67
2022/07/31 07:19:06;;;;;;;8.43;4.18;;;20.60;99.90;;;;;;5061862;28;20036;-66
2022/07/31 07:21:32;;;;;;;8.65;4.05;;;20.60;99.90;;;;;;5042813;28;20067;-68
2022/07/31 07:23:57;;;;;;;9.38;4.05;;;20.60;99.90;;;;;;5059846;28;20028;-67
2022/07/31 07:26:23;;;;;;;8.38;3.92;;;20.60;99.90;;;;;;5064905;28;20081;-66
2022/07/31 07:28:49;;;;;;;9.13;3.97;;;20.70;99.90;;;;;;5047406;28;20033;-67
2022/07/31 07:31:15;;;;;;;10.15;4.10;;;20.70;99.90;;;;;;5062816;28;20028;-67
2022/07/31 07:33:40;;;;;;;9.30;3.85;;;20.70;99.90;;;;;;5048271;28;20044;-67
2022/07/31 07:36:06;;;;;;;10.50;3.78;;;20.70;99.90;;;;;;5062168;28;20077;-68
2022/07/31 07:38:32;;;;;;;9.27;3.90;;;20.60;99.90;;;;;;5064788;28;20060;-68
2022/07/31 07:40:57;;;;;;;9.85;4.15;;;20.60;99.90;;;;;;5064036;28;20075;-67
2022/07/31 07:43:23;;;;;;;9.73;4.00;;;20.60;99.90;;;;;;5061873;28;20032;-67
2022/07/31 07:45:49;;;;;;;9.90;3.92;;;20.70;99.90;;;;;;5063376;28;20056;-67
2022/07/31 07:48:14;;;;;;;9.65;3.97;;;20.70;99.90;;;;;;5059063;28;20051;-68
2022/07/31 07:50:40;;;;;;;9.38;3.72;;;20.70;99.90;;;;;;5053554;28;20044;-67
2022/07/31 07:53:07;;;;;;;14.13;4.35;;;20.70;99.90;;;;;;5062155;28;20036;-67
2022/07/31 07:55:32;;;;;;;10.20;4.47;;;20.60;99.90;;;;;;5043427;28;20028;-66
2022/07/31 07:57:58;;;;;;;10.13;4.47;;;20.60;99.90;;;;;;5063654;28;20050;-66
2022/07/31 08:00:24;;;;;;;10.90;4.63;;;20.50;99.90;;;;;;5063538;28;20161;-67
2022/07/31 08:02:50;;;;;;;12.13;5.20;;;20.50;99.90;;;;;;5059801;28;20402;-67
2022/07/31 08:05:16;;;;;;;13.57;5.10;;;20.40;99.90;;;;;;5062767;28;20078;-67
2022/07/31 08:07:43;;;;;;;15.25;5.45;;;20.40;99.90;;;;;;5062985;28;20040;-67
2022/07/31 08:10:09;;;;;;;10.73;4.97;;;20.40;99.90;;;;;;5046000;28;20029;-67
2022/07/31 08:12:35;;;;;;;16.85;5.82;;;20.40;99.90;;;;;;5060015;28;20105;-67
2022/07/31 08:15:02;;;;;;;13.70;5.25;;;20.40;99.90;;;;;;5046432;28;20042;-68
2022/07/31 08:17:28;;;;;;;17.67;5.85;;;20.40;99.90;;;;;;5059943;28;20440;-67
2022/07/31 08:19:53;;;;;;;16.92;5.55;;;20.40;99.90;;;;;;5045324;28;20033;-69
2022/07/31 08:22:19;;;;;;;16.77;4.63;;;20.40;99.90;;;;;;5063137;28;20035;-67
2022/07/31 08:24:45;;;;;;;12.32;5.35;;;20.40;99.90;;;;;;5065568;28;20132;-68
2022/07/31 08:27:24;;;;;;;12.27;5.50;;;20.50;99.90;;;;;;5043787;28;20043;-69
2022/07/31 08:29:52;;;;;;;11.00;4.80;;;20.50;99.90;;;;;;5064757;28;20032;-69
2022/07/31 08:32:18;;;;;;;11.95;5.00;;;20.60;99.90;;;;;;5042815;28;20044;-69
2022/07/31 08:34:44;;;;;;;12.07;5.00;;;20.80;99.90;;;;;;5061386;28;20062;-68
2022/07/31 08:37:10;;;;;;;12.68;5.28;;;21.10;99.90;;;;;;5046257;28;20078;-67
2022/07/31 08:39:36;;;;;;;12.38;4.78;;;21.30;99.90;;;;;;5062474;28;20371;-67
2022/07/31 08:42:06;;;;;;;13.80;5.07;;;21.40;99.90;;;;;;5054646;28;20036;-68
2022/07/31 08:44:35;;;;;;;13.35;4.60;;;21.50;99.90;;;;;;5057303;28;20040;-68
2022/07/31 08:47:02;;;;;;;12.80;4.30;;;21.70;99.90;;;;;;5062235;28;20032;-68
2022/07/31 08:49:31;;;;;;;10.45;3.88;;;21.80;99.90;;;;;;5064172;28;20047;-69
2022/07/31 08:51:58;;;;;;;;;;;21.90;99.90;;;;;;5066848;28;20032;-68
2022/07/31 08:54:26;;;;;;;11.20;4.05;;;22.00;99.90;;;;;;5064558;28;19912;-67
2022/07/31 08:56:52;;;;;;;11.35;3.85;;;22.30;99.90;;;;;;5069165;28;20037;-68
2022/07/31 08:59:19;;;;;;;11.90;3.75;;;22.40;99.90;;;;;;5068518;28;20064;-68
2022/07/31 09:01:45;;;;;;;9.45;3.78;;;22.40;99.90;;;;;;5068450;28;20482;-68
2022/07/31 09:04:10;;;;;;;8.40;3.30;;;22.40;99.90;;;;;;5067211;28;20036;-68
2022/07/31 09:06:37;;;;;;;7.88;3.40;;;22.30;99.90;;;;;;5063528;28;20032;-67
2022/07/31 09:09:04;;;;;;;8.57;3.25;;;22.10;99.90;;;;;;5062450;28;20040;-69
2022/07/31 09:11:30;;;;;;;11.82;3.50;;;22.00;99.90;;;;;;5048203;28;20137;-67
2022/07/31 09:13:58;;;;;;;7.32;3.25;;;21.90;99.90;;;;;;5065235;28;20048;-68
2022/07/31 09:16:24;;;;;;;10.75;3.50;;;21.90;99.90;;;;;;5048709;28;20032;-67
2022/07/31 09:18:55;;;;;;;9.18;3.50;;;21.80;99.90;;;;;;5067300;28;20024;-67
2022/07/31 09:21:21;;;;;;;9.50;2.97;;;21.90;99.90;;;;;;5067785;28;20067;-67
2022/07/31 09:23:47;;;;;;;8.35;3.00;;;22.00;99.90;;;;;;5061829;28;20552;-67
2022/07/31 09:26:14;;;;;;;8.27;3.42;;;22.00;99.90;;;;;;5059333;28;20100;-68
2022/07/31 09:28:44;;;;;;;8.77;3.05;;;21.90;99.90;;;;;;5045890;28;20049;-69
2022/07/31 09:31:12;;;;;;;8.55;3.00;;;21.90;99.90;;;;;;5062425;28;20032;-67
2022/07/31 09:33:42;;;;;;;8.73;3.03;;;21.80;99.90;;;;;;5065431;28;20032;-67
2022/07/31 09:36:08;;;;;;;6.68;2.80;;;21.70;99.90;;;;;;5065459;28;20029;-66
2022/07/31 09:38:37;;;;;;;7.13;2.95;;;21.60;99.90;;;;;;5063184;28;20073;-67
2022/07/31 09:41:20;;;;;;;7.80;3.00;;;21.60;99.90;;;;;;5061372;28;20036;-67
2022/07/31 09:44:01;;;;;;;8.02;3.33;;;21.50;99.90;;;;;;5061925;28;20482;-67
2022/07/31 09:46:49;;;;;;;9.63;4.00;;;21.30;99.90;;;;;;5062341;28;20040;-68
2022/07/31 09:49:14;;;;;;;12.63;4.68;;;21.20;99.90;;;;;;5066032;28;20028;-68
2022/07/31 09:51:42;;;;;;;13.70;4.40;;;21.10;99.90;;;;;;5057873;28;20560;-68
2022/07/31 09:54:22;;;;;;;14.15;4.05;;;21.00;99.90;;;;;;5070321;28;20042;-67
2022/07/31 09:56:49;;;;;;;10.75;3.90;;;20.90;99.90;;;;;;5063519;28;20029;-68
2022/07/31 09:59:15;;;;;;;14.00;5.07;;;20.80;99.90;;;;;;5065429;28;20486;-67
2022/07/31 10:01:42;;;;;;;11.45;4.63;;;20.70;99.90;;;;;;5067122;28;20036;-66
2022/07/31 10:04:09;;;;;;;14.55;4.07;;;20.70;99.90;;;;;;5067910;28;20028;-67
2022/07/31 10:06:36;;;;;;;11.38;4.22;;;20.70;99.90;;;;;;5068786;28;20039;-67
2022/07/31 10:09:03;;;;;;;12.27;4.10;;;20.70;99.90;;;;;;5066519;28;20078;-67
2022/07/31 10:11:30;;;;;;;12.15;4.35;;;20.70;99.90;;;;;;5077515;28;20052;-67
2022/07/31 10:14:01;;;;;;;11.77;3.60;;;20.70;99.90;;;;;;5070647;28;20033;-68
2022/07/31 10:16:29;;;;;;;11.80;3.95;;;20.70;99.90;;;;;;5059176;28;20024;-68
2022/07/31 10:18:59;;;;;;;15.13;4.32;;;20.80;99.90;;;;;;5067529;28;20025;-67
2022/07/31 10:21:31;;;;;;;12.73;4.20;;;20.90;99.90;;;;;;5048711;28;20094;-68
2022/07/31 10:23:58;;;;;;;11.35;4.05;;;20.90;99.90;;;;;;5065237;28;20550;-67
2022/07/31 10:26:24;;;;;;;10.70;3.97;;;21.00;99.90;;;;;;5043910;28;20028;-68
2022/07/31 10:28:50;;;;;;;9.20;4.07;;;21.20;99.90;;;;;;5068468;28;20032;-68
2022/07/31 10:31:17;;;;;;;15.25;4.15;;;21.40;99.90;;;;;;5068742;28;20032;-67
2022/07/31 10:33:44;;;;;;;9.82;3.63;;;21.50;99.90;;;;;;5066106;28;20150;-67
2022/07/31 10:36:21;;;;;;;9.75;4.13;;;21.60;99.90;;;;;;5068542;28;20032;-67
2022/07/31 10:39:14;;;;;;;12.55;4.43;;;21.60;99.90;;;;;;5069498;28;20048;-66
2022/07/31 10:41:51;;;;;;;11.05;3.97;;;21.60;99.90;;;;;;5072097;28;20098;-67
2022/07/31 10:44:25;;;;;;;10.25;3.65;;;21.60;99.90;;;;;;5064162;28;20065;-67
2022/07/31 10:46:51;;;;;;;12.93;4.20;;;21.50;99.90;;;;;;5069034;28;20040;-67
2022/07/31 10:49:17;;;;;;;13.98;4.18;;;21.40;99.90;;;;;;5065393;28;20028;-68
2022/07/31 10:51:48;;;;;;;13.05;4.53;;;21.30;99.90;;;;;;5067551;28;20028;-67
2022/07/31 10:54:14;;;;;;;11.38;4.45;;;21.20;99.90;;;;;;5062717;28;20041;-67
2022/07/31 10:56:45;;;;;;;11.10;4.40;;;21.10;99.90;;;;;;5061498;28;20028;-66
2022/07/31 10:59:11;;;;;;;13.68;4.80;;;21.00;99.90;;;;;;5066208;28;20033;-69
2022/07/31 11:01:51;;;;;;;15.15;4.63;;;21.00;99.90;;;;;;5037951;28;20033;-68
2022/07/31 11:04:27;;;;;;;13.10;4.72;;;20.90;99.90;;;;;;5062502;28;20130;-67
2022/07/31 11:06:53;;;;;;;15.77;5.05;;;20.90;99.90;;;;;;5062456;28;20029;-67
2022/07/31 11:09:23;;;;;;;13.45;4.78;;;20.90;99.90;;;;;;5064103;28;20731;-67
2022/07/31 11:11:49;;;;;;;15.25;4.50;;;20.90;99.90;;;;;;5054109;28;20059;-68
2022/07/31 11:14:16;;;;;;;12.15;4.60;;;20.80;99.90;;;;;;5059936;28;20028;-67
2022/07/31 11:16:52;;;;;;;11.52;5.00;;;20.80;99.90;;;;;;5045479;28;20460;-67
2022/07/31 11:19:18;;;;;;;13.60;4.65;;;20.80;99.90;;;;;;5046978;28;20663;-68
2022/07/31 11:21:44;;;;;;;16.10;5.10;;;20.90;99.90;;;;;;5062094;28;20032;-68
2022/07/31 11:24:19;;;;;;;16.05;4.60;;;20.90;99.90;;;;;;5050145;28;20020;-67
2022/07/31 11:26:51;;;;;;;12.23;4.53;;;21.00;99.90;;;;;;5066845;28;20028;-68
2022/07/31 11:29:30;;;;;;;16.02;4.93;;;21.00;99.90;;;;;;5055895;28;20116;-68
2022/07/31 11:31:59;;;;;;;13.13;4.75;;;21.00;99.90;;;;;;5057122;28;20032;-67
2022/07/31 11:34:25;;;;;;;13.23;4.72;;;21.00;99.90;;;;;;5066684;28;20044;-67
2022/07/31 11:36:51;;;;;;;14.32;4.90;;;21.10;99.90;;;;;;5063160;28;20032;-68
2022/07/31 11:39:17;;;;;;;12.45;4.90;;;21.10;99.90;;;;;;5064072;28;20028;-68
2022/07/31 11:41:42;;;;;;;14.05;4.93;;;21.20;99.90;;;;;;5056163;28;20037;-67
2022/07/31 11:44:08;;;;;;;14.00;5.15;;;21.30;99.90;;;;;;5059043;28;20036;-67
2022/07/31 11:46:36;;;;;;;15.43;5.57;;;21.30;99.90;;;;;;5060783;28;20052;-68
2022/07/31 11:49:04;;;;;;;14.30;4.95;;;21.30;99.90;;;;;;5053483;28;20433;-67
2022/07/31 11:51:30;;;;;;;13.32;5.15;;;21.30;99.90;;;;;;5053740;28;20394;-67
2022/07/31 11:53:56;;;;;;;13.68;5.00;;;21.40;99.90;;;;;;5062944;28;20060;-67
2022/07/31 11:56:23;;;;;;;14.82;4.20;;;21.60;99.90;;;;;;5066831;28;20068;-67
2022/07/31 11:58:56;;;;;;;10.38;4.30;;;21.60;99.90;;;;;;5058652;28;20032;-68
2022/07/31 12:01:28;;;;;;;12.52;4.60;;;21.60;99.90;;;;;;5068829;28;20127;-68
2022/07/31 12:03:54;;;;;;;10.05;4.63;;;21.50;99.90;;;;;;5068084;28;20035;-68
2022/07/31 12:06:20;;;;;;;17.83;5.15;;;21.50;99.90;;;;;;5066345;28;20085;-67
2022/07/31 12:08:47;;;;;;;13.63;4.80;;;21.40;99.90;;;;;;5069042;28;20044;-67
2022/07/31 12:11:13;;;;;;;12.38;4.47;;;21.50;99.90;;;;;;5050793;28;20059;-66
2022/07/31 12:13:39;;;;;;;14.40;4.50;;;21.40;99.90;;;;;;5069393;28;20036;-66
2022/07/31 12:16:06;;;;;;;13.18;4.97;;;21.40;99.90;;;;;;5069143;28;20458;-67
2022/07/31 12:19:01;;;;;;;12.18;4.28;;;21.40;99.90;;;;;;5069024;28;20036;-67
2022/07/31 12:21:35;;;;;;;14.27;5.53;;;21.40;99.90;;;;;;5050939;28;20113;-69
2022/07/31 12:24:02;;;;;;;12.35;4.47;;;21.40;99.90;;;;;;5051535;28;20135;-67
2022/07/31 12:26:32;;;;;;;12.13;4.72;;;21.40;99.90;;;;;;5068952;28;20037;-68
2022/07/31 12:29:04;;;;;;;12.85;5.05;;;21.50;99.90;;;;;;5068956;28;20514;-67
2022/07/31 12:31:46;;;;;;;12.25;4.68;;;21.50;99.90;;;;;;5050551;28;20071;-67
2022/07/31 12:34:33;;;;;;;13.20;4.97;;;21.70;99.90;;;;;;5068757;28;20122;-67
2022/07/31 12:37:09;;;;;;;12.02;4.82;;;21.80;99.90;;;;;;5068810;28;20039;-67
2022/07/31 12:39:37;;;;;;;13.13;4.50;;;22.50;99.90;;;;;;5068912;28;20040;-67
2022/07/31 12:42:03;;;;;;;12.95;4.38;;;22.90;99.90;;;;;;5068578;28;20402;-68
2022/07/31 12:44:29;;;;;;;10.02;3.85;;;24.10;99.90;;;;;;5050472;28;20032;-67